sensor_id;sensor_type;location;lat;lon;timestamp;P1;durP1;ratioP1;P2;durP2;ratioP2
81697;SDS011;71109;52.514;5.708;2023-12-07T00:01:06;12.40;;;6.33;;
81697;SDS011;71109;52.514;5.708;2023-12-07T00:03:32;17.98;;;8.85;;
81697;SDS011;71109;52.514;5.708;2023-12-07T00:05:57;13.90;;;7.00;;
81697;SDS011;71109;52.514;5.708;2023-12-07T00:08:23;14.57;;;7.20;;
81697;SDS011;71109;52.514;5.708;2023-12-07T00:10:48;14.50;;;7.30;;
81697;SDS011;71109;52.514;5.708;2023-12-07T00:13:13;15.98;;;8.02;;
81697;SDS011;71109;52.514;5.708;2023-12-07T00:15:39;15.82;;;8.38;;
81697;SDS011;71109;52.514;5.708;2023-12-07T00:18:04;19.43;;;8.67;;
81697;SDS011;71109;52.514;5.708;2023-12-07T00:20:29;14.25;;;7.80;;
81697;SDS011;71109;52.514;5.708;2023-12-07T00:22:55;17.08;;;7.60;;
81697;SDS011;71109;52.514;5.708;2023-12-07T00:25:21;15.68;;;8.38;;
81697;SDS011;71109;52.514;5.708;2023-12-07T00:27:46;15.65;;;7.72;;
81697;SDS011;71109;52.514;5.708;2023-12-07T00:30:12;17.08;;;8.98;;
81697;SDS011;71109;52.514;5.708;2023-12-07T00:32:37;14.02;;;7.85;;
81697;SDS011;71109;52.514;5.708;2023-12-07T00:35:03;14.30;;;7.77;;
81697;SDS011;71109;52.514;5.708;2023-12-07T00:37:29;15.50;;;8.82;;
81697;SDS011;71109;52.514;5.708;2023-12-07T00:39:54;16.87;;;7.83;;
81697;SDS011;71109;52.514;5.708;2023-12-07T00:42:19;18.60;;;8.03;;
81697;SDS011;71109;52.514;5.708;2023-12-07T00:44:45;19.97;;;8.67;;
81697;SDS011;71109;52.514;5.708;2023-12-07T00:47:10;16.73;;;8.73;;
81697;SDS011;71109;52.514;5.708;2023-12-07T00:49:38;15.50;;;8.02;;
81697;SDS011;71109;52.514;5.708;2023-12-07T00:52:05;23.98;;;10.02;;
81697;SDS011;71109;52.514;5.708;2023-12-07T00:54:31;17.05;;;9.40;;
81697;SDS011;71109;52.514;5.708;2023-12-07T00:56:56;23.70;;;8.77;;
81697;SDS011;71109;52.514;5.708;2023-12-07T00:59:22;13.18;;;7.28;;
81697;SDS011;71109;52.514;5.708;2023-12-07T01:01:48;16.35;;;8.35;;
81697;SDS011;71109;52.514;5.708;2023-12-07T01:04:13;18.23;;;9.13;;
81697;SDS011;71109;52.514;5.708;2023-12-07T01:06:39;19.27;;;8.80;;
81697;SDS011;71109;52.514;5.708;2023-12-07T01:09:04;19.50;;;9.63;;
81697;SDS011;71109;52.514;5.708;2023-12-07T01:11:29;18.35;;;8.88;;
81697;SDS011;71109;52.514;5.708;2023-12-07T01:13:55;19.02;;;9.05;;
81697;SDS011;71109;52.514;5.708;2023-12-07T01:16:20;16.65;;;8.65;;
81697;SDS011;71109;52.514;5.708;2023-12-07T01:18:46;18.33;;;8.70;;
81697;SDS011;71109;52.514;5.708;2023-12-07T01:21:11;22.95;;;8.65;;
81697;SDS011;71109;52.514;5.708;2023-12-07T01:23:37;20.10;;;9.30;;
81697;SDS011;71109;52.514;5.708;2023-12-07T01:26:02;20.80;;;9.40;;
81697;SDS011;71109;52.514;5.708;2023-12-07T01:28:28;17.65;;;9.18;;
81697;SDS011;71109;52.514;5.708;2023-12-07T01:30:53;17.67;;;9.13;;
81697;SDS011;71109;52.514;5.708;2023-12-07T01:33:18;14.35;;;8.75;;
81697;SDS011;71109;52.514;5.708;2023-12-07T01:35:44;18.27;;;8.13;;
81697;SDS011;71109;52.514;5.708;2023-12-07T01:38:09;23.55;;;9.73;;
81697;SDS011;71109;52.514;5.708;2023-12-07T01:40:34;20.10;;;9.37;;
81697;SDS011;71109;52.514;5.708;2023-12-07T01:43:00;21.37;;;9.77;;
81697;SDS011;71109;52.514;5.708;2023-12-07T01:45:25;22.13;;;10.97;;
81697;SDS011;71109;52.514;5.708;2023-12-07T01:47:51;18.90;;;9.03;;
81697;SDS011;71109;52.514;5.708;2023-12-07T01:50:17;22.15;;;9.38;;
81697;SDS011;71109;52.514;5.708;2023-12-07T01:52:48;23.92;;;10.45;;
81697;SDS011;71109;52.514;5.708;2023-12-07T01:55:15;18.00;;;8.43;;
81697;SDS011;71109;52.514;5.708;2023-12-07T02:00:07;19.70;;;9.75;;
81697;SDS011;71109;52.514;5.708;2023-12-07T02:02:32;19.30;;;9.38;;
81697;SDS011;71109;52.514;5.708;2023-12-07T02:04:58;18.00;;;9.40;;
81697;SDS011;71109;52.514;5.708;2023-12-07T02:07:23;24.20;;;9.70;;
81697;SDS011;71109;52.514;5.708;2023-12-07T02:12:14;20.80;;;8.55;;
81697;SDS011;71109;52.514;5.708;2023-12-07T02:14:40;25.42;;;8.75;;
81697;SDS011;71109;52.514;5.708;2023-12-07T02:19:46;26.55;;;10.63;;
81697;SDS011;71109;52.514;5.708;2023-12-07T02:22:14;26.20;;;11.55;;
81697;SDS011;71109;52.514;5.708;2023-12-07T02:24:46;17.48;;;9.55;;
81697;SDS011;71109;52.514;5.708;2023-12-07T02:27:13;23.13;;;9.68;;
81697;SDS011;71109;52.514;5.708;2023-12-07T02:32:03;21.53;;;10.70;;
81697;SDS011;71109;52.514;5.708;2023-12-07T02:36:54;18.47;;;9.13;;
81697;SDS011;71109;52.514;5.708;2023-12-07T02:39:21;22.27;;;9.65;;
81697;SDS011;71109;52.514;5.708;2023-12-07T02:41:48;23.30;;;10.43;;
81697;SDS011;71109;52.514;5.708;2023-12-07T02:46:39;21.50;;;9.50;;
81697;SDS011;71109;52.514;5.708;2023-12-07T02:51:30;22.90;;;9.87;;
81697;SDS011;71109;52.514;5.708;2023-12-07T02:56:20;21.30;;;8.43;;
81697;SDS011;71109;52.514;5.708;2023-12-07T03:01:11;26.57;;;8.33;;
81697;SDS011;71109;52.514;5.708;2023-12-07T03:06:03;22.15;;;10.00;;
81697;SDS011;71109;52.514;5.708;2023-12-07T03:10:54;22.63;;;10.07;;
81697;SDS011;71109;52.514;5.708;2023-12-07T03:13:19;25.95;;;10.63;;
81697;SDS011;71109;52.514;5.708;2023-12-07T03:15:45;28.08;;;12.07;;
81697;SDS011;71109;52.514;5.708;2023-12-07T03:20:35;23.60;;;9.97;;
81697;SDS011;71109;52.514;5.708;2023-12-07T03:25:26;21.03;;;10.40;;
81697;SDS011;71109;52.514;5.708;2023-12-07T03:27:51;21.88;;;9.85;;
81697;SDS011;71109;52.514;5.708;2023-12-07T03:30:17;25.03;;;10.77;;
81697;SDS011;71109;52.514;5.708;2023-12-07T03:35:07;17.70;;;9.20;;
81697;SDS011;71109;52.514;5.708;2023-12-07T03:39:58;24.83;;;11.23;;
81697;SDS011;71109;52.514;5.708;2023-12-07T03:44:48;23.17;;;10.83;;
81697;SDS011;71109;52.514;5.708;2023-12-07T03:47:14;19.20;;;8.93;;
81697;SDS011;71109;52.514;5.708;2023-12-07T03:52:06;21.98;;;11.00;;
81697;SDS011;71109;52.514;5.708;2023-12-07T03:56:57;23.03;;;10.47;;
81697;SDS011;71109;52.514;5.708;2023-12-07T04:01:47;24.23;;;9.67;;
81697;SDS011;71109;52.514;5.708;2023-12-07T04:06:38;21.20;;;10.30;;
81697;SDS011;71109;52.514;5.708;2023-12-07T04:09:03;26.98;;;11.23;;
81697;SDS011;71109;52.514;5.708;2023-12-07T04:11:29;28.02;;;11.75;;
81697;SDS011;71109;52.514;5.708;2023-12-07T04:13:54;26.60;;;11.17;;
81697;SDS011;71109;52.514;5.708;2023-12-07T04:18:45;19.90;;;10.07;;
81697;SDS011;71109;52.514;5.708;2023-12-07T04:23:35;21.90;;;9.03;;
81697;SDS011;71109;52.514;5.708;2023-12-07T04:28:26;18.17;;;9.43;;
81697;SDS011;71109;52.514;5.708;2023-12-07T04:30:51;29.17;;;10.27;;
81697;SDS011;71109;52.514;5.708;2023-12-07T04:35:42;17.93;;;9.90;;
81697;SDS011;71109;52.514;5.708;2023-12-07T04:40:33;20.20;;;9.63;;
81697;SDS011;71109;52.514;5.708;2023-12-07T04:45:24;27.57;;;10.00;;
81697;SDS011;71109;52.514;5.708;2023-12-07T04:50:14;15.65;;;8.32;;
81697;SDS011;71109;52.514;5.708;2023-12-07T04:52:39;20.93;;;10.00;;
81697;SDS011;71109;52.514;5.708;2023-12-07T04:57:34;20.63;;;9.00;;
81697;SDS011;71109;52.514;5.708;2023-12-07T05:00:00;29.98;;;10.38;;
81697;SDS011;71109;52.514;5.708;2023-12-07T05:04:52;19.25;;;10.20;;
81697;SDS011;71109;52.514;5.708;2023-12-07T05:09:43;23.90;;;8.90;;
81697;SDS011;71109;52.514;5.708;2023-12-07T05:14:33;16.87;;;9.27;;
81697;SDS011;71109;52.514;5.708;2023-12-07T05:17:00;21.13;;;10.10;;
81697;SDS011;71109;52.514;5.708;2023-12-07T05:21:51;16.90;;;9.20;;
81697;SDS011;71109;52.514;5.708;2023-12-07T05:26:42;18.77;;;8.30;;
81697;SDS011;71109;52.514;5.708;2023-12-07T05:31:33;23.57;;;9.07;;
81697;SDS011;71109;52.514;5.708;2023-12-07T05:36:24;19.33;;;9.07;;
81697;SDS011;71109;52.514;5.708;2023-12-07T05:41:14;20.17;;;8.97;;
81697;SDS011;71109;52.514;5.708;2023-12-07T05:46:08;19.13;;;9.82;;
81697;SDS011;71109;52.514;5.708;2023-12-07T05:50:58;18.53;;;8.20;;
81697;SDS011;71109;52.514;5.708;2023-12-07T05:55:49;19.88;;;8.05;;
81697;SDS011;71109;52.514;5.708;2023-12-07T05:58:15;19.27;;;10.27;;
81697;SDS011;71109;52.514;5.708;2023-12-07T06:00:42;25.13;;;11.43;;
81697;SDS011;71109;52.514;5.708;2023-12-07T06:03:08;22.30;;;10.40;;
81697;SDS011;71109;52.514;5.708;2023-12-07T06:08:02;27.38;;;10.48;;
81697;SDS011;71109;52.514;5.708;2023-12-07T06:10:28;25.48;;;10.82;;
81697;SDS011;71109;52.514;5.708;2023-12-07T06:15:20;18.52;;;9.10;;
81697;SDS011;71109;52.514;5.708;2023-12-07T06:20:10;27.80;;;9.60;;
81697;SDS011;71109;52.514;5.708;2023-12-07T06:25:02;24.90;;;9.57;;
81697;SDS011;71109;52.514;5.708;2023-12-07T06:29:52;16.67;;;8.83;;
81697;SDS011;71109;52.514;5.708;2023-12-07T06:34:43;23.33;;;9.07;;
81697;SDS011;71109;52.514;5.708;2023-12-07T06:39:35;24.98;;;10.55;;
81697;SDS011;71109;52.514;5.708;2023-12-07T06:44:26;22.53;;;10.30;;
81697;SDS011;71109;52.514;5.708;2023-12-07T06:49:16;22.60;;;10.60;;
81697;SDS011;71109;52.514;5.708;2023-12-07T06:54:07;19.00;;;9.50;;
81697;SDS011;71109;52.514;5.708;2023-12-07T06:56:32;24.92;;;13.30;;
81697;SDS011;71109;52.514;5.708;2023-12-07T07:01:23;18.13;;;9.75;;
81697;SDS011;71109;52.514;5.708;2023-12-07T07:03:48;19.77;;;9.93;;
81697;SDS011;71109;52.514;5.708;2023-12-07T07:06:14;21.17;;;11.55;;
81697;SDS011;71109;52.514;5.708;2023-12-07T07:11:09;20.90;;;9.67;;
81697;SDS011;71109;52.514;5.708;2023-12-07T07:13:37;25.58;;;10.65;;
81697;SDS011;71109;52.514;5.708;2023-12-07T07:16:02;34.40;;;11.70;;
81697;SDS011;71109;52.514;5.708;2023-12-07T07:18:28;25.05;;;11.15;;
81697;SDS011;71109;52.514;5.708;2023-12-07T07:20:54;28.45;;;11.65;;
81697;SDS011;71109;52.514;5.708;2023-12-07T07:25:45;19.80;;;10.40;;
81697;SDS011;71109;52.514;5.708;2023-12-07T07:30:35;21.10;;;9.70;;
81697;SDS011;71109;52.514;5.708;2023-12-07T07:35:26;25.65;;;10.93;;
81697;SDS011;71109;52.514;5.708;2023-12-07T07:40:18;31.35;;;13.48;;
81697;SDS011;71109;52.514;5.708;2023-12-07T07:45:09;33.10;;;17.00;;
81697;SDS011;71109;52.514;5.708;2023-12-07T07:50:00;35.60;;;14.30;;
81697;SDS011;71109;52.514;5.708;2023-12-07T07:52:30;36.67;;;15.82;;
81697;SDS011;71109;52.514;5.708;2023-12-07T07:54:57;37.47;;;18.15;;
81697;SDS011;71109;52.514;5.708;2023-12-07T07:59:48;32.23;;;15.73;;
81697;SDS011;71109;52.514;5.708;2023-12-07T08:04:38;26.70;;;12.30;;
81697;SDS011;71109;52.514;5.708;2023-12-07T08:09:29;24.20;;;12.50;;
81697;SDS011;71109;52.514;5.708;2023-12-07T08:14:19;24.50;;;11.67;;
81697;SDS011;71109;52.514;5.708;2023-12-07T08:16:45;31.48;;;13.27;;
81697;SDS011;71109;52.514;5.708;2023-12-07T08:19:11;30.33;;;14.07;;
81697;SDS011;71109;52.514;5.708;2023-12-07T08:21:37;37.80;;;15.80;;
81697;SDS011;71109;52.514;5.708;2023-12-07T08:24:02;35.23;;;14.30;;
81697;SDS011;71109;52.514;5.708;2023-12-07T08:26:28;30.48;;;13.10;;
81697;SDS011;71109;52.514;5.708;2023-12-07T08:28:54;39.58;;;14.85;;
81697;SDS011;71109;52.514;5.708;2023-12-07T08:31:20;29.10;;;14.77;;
81697;SDS011;71109;52.514;5.708;2023-12-07T08:36:10;32.97;;;13.70;;
81697;SDS011;71109;52.514;5.708;2023-12-07T08:38:36;33.75;;;12.13;;
81697;SDS011;71109;52.514;5.708;2023-12-07T08:41:01;27.60;;;11.67;;
81697;SDS011;71109;52.514;5.708;2023-12-07T08:43:27;53.88;;;13.13;;
81697;SDS011;71109;52.514;5.708;2023-12-07T08:45:55;52.70;;;14.35;;
81697;SDS011;71109;52.514;5.708;2023-12-07T08:48:20;66.97;;;14.70;;
81697;SDS011;71109;52.514;5.708;2023-12-07T08:50:46;49.30;;;12.17;;
81697;SDS011;71109;52.514;5.708;2023-12-07T08:53:11;91.72;;;12.80;;
81697;SDS011;71109;52.514;5.708;2023-12-07T08:55:37;43.88;;;11.82;;
81697;SDS011;71109;52.514;5.708;2023-12-07T08:58:02;100.18;;;14.15;;
81697;SDS011;71109;52.514;5.708;2023-12-07T09:00:30;32.70;;;11.60;;
81697;SDS011;71109;52.514;5.708;2023-12-07T09:02:56;33.85;;;11.57;;
81697;SDS011;71109;52.514;5.708;2023-12-07T09:07:47;45.83;;;11.87;;
81697;SDS011;71109;52.514;5.708;2023-12-07T09:10:12;28.15;;;11.25;;
81697;SDS011;71109;52.514;5.708;2023-12-07T09:12:38;34.55;;;11.05;;
81697;SDS011;71109;52.514;5.708;2023-12-07T09:15:03;35.40;;;11.77;;
81697;SDS011;71109;52.514;5.708;2023-12-07T09:17:29;40.42;;;10.82;;
81697;SDS011;71109;52.514;5.708;2023-12-07T09:22:20;29.30;;;10.70;;
81697;SDS011;71109;52.514;5.708;2023-12-07T09:24:45;34.97;;;10.52;;
81697;SDS011;71109;52.514;5.708;2023-12-07T09:27:14;25.10;;;11.07;;
81697;SDS011;71109;52.514;5.708;2023-12-07T09:32:05;31.00;;;11.00;;
81697;SDS011;71109;52.514;5.708;2023-12-07T09:34:32;52.58;;;13.98;;
81697;SDS011;71109;52.514;5.708;2023-12-07T09:39:32;29.92;;;11.93;;
81697;SDS011;71109;52.514;5.708;2023-12-07T09:44:23;53.10;;;12.37;;
81697;SDS011;71109;52.514;5.708;2023-12-07T09:46:48;41.78;;;12.77;;
81697;SDS011;71109;52.514;5.708;2023-12-07T09:49:14;57.22;;;12.75;;
81697;SDS011;71109;52.514;5.708;2023-12-07T09:54:05;38.50;;;12.45;;
81697;SDS011;71109;52.514;5.708;2023-12-07T09:56:31;43.80;;;12.85;;
81697;SDS011;71109;52.514;5.708;2023-12-07T09:58:56;45.60;;;12.88;;
81697;SDS011;71109;52.514;5.708;2023-12-07T10:01:27;52.85;;;13.60;;
81697;SDS011;71109;52.514;5.708;2023-12-07T10:04:14;53.25;;;13.73;;
81697;SDS011;71109;52.514;5.708;2023-12-07T10:06:44;56.47;;;14.02;;
81697;SDS011;71109;52.514;5.708;2023-12-07T10:09:13;36.47;;;13.30;;
81697;SDS011;71109;52.514;5.708;2023-12-07T10:11:39;42.92;;;13.40;;
81697;SDS011;71109;52.514;5.708;2023-12-07T10:14:05;35.28;;;14.57;;
81697;SDS011;71109;52.514;5.708;2023-12-07T10:16:32;44.92;;;16.10;;
81697;SDS011;71109;52.514;5.708;2023-12-07T10:19:12;53.42;;;13.20;;
81697;SDS011;71109;52.514;5.708;2023-12-07T10:21:38;40.08;;;12.10;;
81697;SDS011;71109;52.514;5.708;2023-12-07T10:24:04;48.17;;;13.20;;
81697;SDS011;71109;52.514;5.708;2023-12-07T10:26:30;43.08;;;12.73;;
81697;SDS011;71109;52.514;5.708;2023-12-07T10:28:55;32.28;;;12.27;;
81697;SDS011;71109;52.514;5.708;2023-12-07T10:31:21;47.08;;;13.35;;
81697;SDS011;71109;52.514;5.708;2023-12-07T10:33:50;81.40;;;15.43;;
81697;SDS011;71109;52.514;5.708;2023-12-07T10:36:15;55.35;;;13.63;;
81697;SDS011;71109;52.514;5.708;2023-12-07T10:38:40;58.67;;;11.97;;
81697;SDS011;71109;52.514;5.708;2023-12-07T10:41:12;53.45;;;14.13;;
81697;SDS011;71109;52.514;5.708;2023-12-07T10:43:38;42.30;;;12.25;;
81697;SDS011;71109;52.514;5.708;2023-12-07T10:46:07;34.40;;;12.60;;
81697;SDS011;71109;52.514;5.708;2023-12-07T10:48:34;71.90;;;16.38;;
81697;SDS011;71109;52.514;5.708;2023-12-07T10:51:00;52.95;;;14.40;;
81697;SDS011;71109;52.514;5.708;2023-12-07T10:53:29;55.47;;;13.07;;
81697;SDS011;71109;52.514;5.708;2023-12-07T10:56:01;32.30;;;12.82;;
81697;SDS011;71109;52.514;5.708;2023-12-07T10:58:28;46.95;;;14.30;;
81697;SDS011;71109;52.514;5.708;2023-12-07T11:00:54;34.28;;;14.05;;
81697;SDS011;71109;52.514;5.708;2023-12-07T11:03:19;52.67;;;14.80;;
81697;SDS011;71109;52.514;5.708;2023-12-07T11:05:48;33.63;;;13.40;;
81697;SDS011;71109;52.514;5.708;2023-12-07T11:11:03;51.58;;;16.42;;
81697;SDS011;71109;52.514;5.708;2023-12-07T11:13:32;56.58;;;15.18;;
81697;SDS011;71109;52.514;5.708;2023-12-07T11:16:00;36.90;;;13.95;;
81697;SDS011;71109;52.514;5.708;2023-12-07T11:18:25;50.58;;;14.65;;
81697;SDS011;71109;52.514;5.708;2023-12-07T11:20:52;35.05;;;12.25;;
81697;SDS011;71109;52.514;5.708;2023-12-07T11:23:18;34.33;;;13.73;;
81697;SDS011;71109;52.514;5.708;2023-12-07T11:25:44;41.55;;;13.18;;
81697;SDS011;71109;52.514;5.708;2023-12-07T11:28:10;44.10;;;14.60;;
81697;SDS011;71109;52.514;5.708;2023-12-07T11:30:36;34.60;;;13.27;;
81697;SDS011;71109;52.514;5.708;2023-12-07T11:33:05;26.25;;;12.23;;
81697;SDS011;71109;52.514;5.708;2023-12-07T11:35:31;31.90;;;13.32;;
81697;SDS011;71109;52.514;5.708;2023-12-07T11:38:00;30.42;;;14.20;;
81697;SDS011;71109;52.514;5.708;2023-12-07T11:40:31;32.47;;;13.52;;
81697;SDS011;71109;52.514;5.708;2023-12-07T11:43:06;31.95;;;11.90;;
81697;SDS011;71109;52.514;5.708;2023-12-07T11:45:38;27.50;;;12.40;;
81697;SDS011;71109;52.514;5.708;2023-12-07T11:48:08;30.40;;;15.07;;
81697;SDS011;71109;52.514;5.708;2023-12-07T11:50:34;30.35;;;15.13;;
81697;SDS011;71109;52.514;5.708;2023-12-07T11:52:59;32.70;;;15.30;;
81697;SDS011;71109;52.514;5.708;2023-12-07T11:55:24;31.13;;;15.23;;
81697;SDS011;71109;52.514;5.708;2023-12-07T11:57:50;31.50;;;14.00;;
81697;SDS011;71109;52.514;5.708;2023-12-07T12:00:15;30.17;;;12.70;;
81697;SDS011;71109;52.514;5.708;2023-12-07T12:02:42;29.25;;;13.35;;
81697;SDS011;71109;52.514;5.708;2023-12-07T12:05:09;32.22;;;13.48;;
81697;SDS011;71109;52.514;5.708;2023-12-07T12:07:35;39.42;;;14.35;;
81697;SDS011;71109;52.514;5.708;2023-12-07T12:10:02;32.87;;;14.23;;
81697;SDS011;71109;52.514;5.708;2023-12-07T12:12:29;27.27;;;13.48;;
81697;SDS011;71109;52.514;5.708;2023-12-07T12:14:54;32.80;;;12.93;;
81697;SDS011;71109;52.514;5.708;2023-12-07T12:17:19;36.20;;;14.60;;
81697;SDS011;71109;52.514;5.708;2023-12-07T12:19:45;26.20;;;13.75;;
81697;SDS011;71109;52.514;5.708;2023-12-07T12:22:10;29.50;;;13.27;;
81697;SDS011;71109;52.514;5.708;2023-12-07T12:24:36;31.67;;;14.45;;
81697;SDS011;71109;52.514;5.708;2023-12-07T12:27:02;27.13;;;13.75;;
81697;SDS011;71109;52.514;5.708;2023-12-07T12:29:27;34.92;;;14.55;;
81697;SDS011;71109;52.514;5.708;2023-12-07T12:31:53;27.15;;;13.43;;
81697;SDS011;71109;52.514;5.708;2023-12-07T12:34:20;26.23;;;12.63;;
81697;SDS011;71109;52.514;5.708;2023-12-07T12:36:46;30.88;;;15.10;;
81697;SDS011;71109;52.514;5.708;2023-12-07T12:39:11;25.58;;;11.98;;
81697;SDS011;71109;52.514;5.708;2023-12-07T12:41:36;26.38;;;13.23;;
81697;SDS011;71109;52.514;5.708;2023-12-07T12:44:02;27.25;;;12.65;;
81697;SDS011;71109;52.514;5.708;2023-12-07T12:46:27;23.77;;;13.23;;
81697;SDS011;71109;52.514;5.708;2023-12-07T12:48:56;29.50;;;13.40;;
81697;SDS011;71109;52.514;5.708;2023-12-07T12:51:25;26.23;;;12.57;;
81697;SDS011;71109;52.514;5.708;2023-12-07T12:53:52;23.13;;;12.35;;
81697;SDS011;71109;52.514;5.708;2023-12-07T12:56:19;22.38;;;11.73;;
81697;SDS011;71109;52.514;5.708;2023-12-07T12:58:46;29.33;;;13.48;;
81697;SDS011;71109;52.514;5.708;2023-12-07T13:01:12;25.92;;;13.10;;
81697;SDS011;71109;52.514;5.708;2023-12-07T13:03:37;24.42;;;12.70;;
81697;SDS011;71109;52.514;5.708;2023-12-07T13:06:03;27.08;;;13.30;;
81697;SDS011;71109;52.514;5.708;2023-12-07T13:08:29;23.17;;;11.93;;
81697;SDS011;71109;52.514;5.708;2023-12-07T13:10:58;23.27;;;11.73;;
81697;SDS011;71109;52.514;5.708;2023-12-07T13:13:23;23.05;;;11.20;;
81697;SDS011;71109;52.514;5.708;2023-12-07T13:15:48;21.40;;;11.33;;
81697;SDS011;71109;52.514;5.708;2023-12-07T13:18:14;26.40;;;11.70;;
81697;SDS011;71109;52.514;5.708;2023-12-07T13:20:39;21.97;;;11.87;;
81697;SDS011;71109;52.514;5.708;2023-12-07T13:23:04;22.57;;;11.73;;
81697;SDS011;71109;52.514;5.708;2023-12-07T13:25:31;16.73;;;8.63;;
81697;SDS011;71109;52.514;5.708;2023-12-07T13:27:56;19.05;;;9.48;;
81697;SDS011;71109;52.514;5.708;2023-12-07T13:30:22;18.52;;;9.85;;
81697;SDS011;71109;52.514;5.708;2023-12-07T13:32:50;21.52;;;9.50;;
81697;SDS011;71109;52.514;5.708;2023-12-07T13:35:15;19.23;;;9.23;;
81697;SDS011;71109;52.514;5.708;2023-12-07T13:37:40;21.60;;;10.00;;
81697;SDS011;71109;52.514;5.708;2023-12-07T13:40:06;17.33;;;9.23;;
81697;SDS011;71109;52.514;5.708;2023-12-07T13:42:35;15.23;;;8.00;;
81697;SDS011;71109;52.514;5.708;2023-12-07T13:45:01;20.20;;;9.40;;
81697;SDS011;71109;52.514;5.708;2023-12-07T13:47:27;19.67;;;8.13;;
81697;SDS011;71109;52.514;5.708;2023-12-07T13:49:59;16.80;;;8.25;;
81697;SDS011;71109;52.514;5.708;2023-12-07T13:52:25;23.50;;;9.68;;
81697;SDS011;71109;52.514;5.708;2023-12-07T13:54:51;15.40;;;8.15;;
81697;SDS011;71109;52.514;5.708;2023-12-07T13:57:17;16.92;;;7.38;;
81697;SDS011;71109;52.514;5.708;2023-12-07T13:59:43;21.20;;;7.50;;
81697;SDS011;71109;52.514;5.708;2023-12-07T14:02:09;17.23;;;7.10;;
81697;SDS011;71109;52.514;5.708;2023-12-07T14:04:35;18.55;;;7.78;;
81697;SDS011;71109;52.514;5.708;2023-12-07T14:07:09;16.75;;;7.55;;
81697;SDS011;71109;52.514;5.708;2023-12-07T14:09:40;19.08;;;8.80;;
81697;SDS011;71109;52.514;5.708;2023-12-07T14:12:07;21.45;;;9.43;;
81697;SDS011;71109;52.514;5.708;2023-12-07T14:14:33;20.55;;;8.80;;
81697;SDS011;71109;52.514;5.708;2023-12-07T14:16:59;23.83;;;8.73;;
81697;SDS011;71109;52.514;5.708;2023-12-07T14:19:24;22.60;;;9.25;;
81697;SDS011;71109;52.514;5.708;2023-12-07T14:21:50;27.50;;;10.32;;
81697;SDS011;71109;52.514;5.708;2023-12-07T14:24:15;27.85;;;11.63;;
81697;SDS011;71109;52.514;5.708;2023-12-07T14:26:44;21.73;;;9.30;;
81697;SDS011;71109;52.514;5.708;2023-12-07T14:29:09;24.73;;;10.40;;
81697;SDS011;71109;52.514;5.708;2023-12-07T14:31:39;24.33;;;10.27;;
81697;SDS011;71109;52.514;5.708;2023-12-07T14:34:05;26.33;;;10.98;;
81697;SDS011;71109;52.514;5.708;2023-12-07T14:36:30;30.20;;;12.38;;
81697;SDS011;71109;52.514;5.708;2023-12-07T14:38:56;26.33;;;11.45;;
81697;SDS011;71109;52.514;5.708;2023-12-07T14:41:21;33.50;;;11.27;;
81697;SDS011;71109;52.514;5.708;2023-12-07T14:43:47;35.92;;;12.18;;
81697;SDS011;71109;52.514;5.708;2023-12-07T14:46:13;37.40;;;13.27;;
81697;SDS011;71109;52.514;5.708;2023-12-07T14:48:38;38.33;;;13.50;;
81697;SDS011;71109;52.514;5.708;2023-12-07T14:51:04;42.90;;;14.23;;
81697;SDS011;71109;52.514;5.708;2023-12-07T14:53:30;37.92;;;15.45;;
81697;SDS011;71109;52.514;5.708;2023-12-07T14:55:55;44.13;;;15.67;;
81697;SDS011;71109;52.514;5.708;2023-12-07T14:58:22;31.85;;;14.13;;
81697;SDS011;71109;52.514;5.708;2023-12-07T15:00:48;40.75;;;15.77;;
81697;SDS011;71109;52.514;5.708;2023-12-07T15:03:13;32.73;;;12.50;;
81697;SDS011;71109;52.514;5.708;2023-12-07T15:05:39;38.67;;;15.35;;
81697;SDS011;71109;52.514;5.708;2023-12-07T15:08:06;34.63;;;12.77;;
81697;SDS011;71109;52.514;5.708;2023-12-07T15:10:31;40.88;;;15.48;;
81697;SDS011;71109;52.514;5.708;2023-12-07T15:12:56;41.35;;;16.38;;
81697;SDS011;71109;52.514;5.708;2023-12-07T15:15:22;40.60;;;14.77;;
81697;SDS011;71109;52.514;5.708;2023-12-07T15:17:47;48.13;;;15.70;;
81697;SDS011;71109;52.514;5.708;2023-12-07T15:20:12;46.60;;;15.50;;
81697;SDS011;71109;52.514;5.708;2023-12-07T15:22:38;42.72;;;17.08;;
81697;SDS011;71109;52.514;5.708;2023-12-07T15:25:04;45.38;;;16.00;;
81697;SDS011;71109;52.514;5.708;2023-12-07T15:27:30;53.88;;;17.73;;
81697;SDS011;71109;52.514;5.708;2023-12-07T15:29:55;45.23;;;17.73;;
81697;SDS011;71109;52.514;5.708;2023-12-07T15:32:21;48.73;;;18.20;;
81697;SDS011;71109;52.514;5.708;2023-12-07T15:34:46;54.70;;;19.25;;
81697;SDS011;71109;52.514;5.708;2023-12-07T15:37:13;40.67;;;14.88;;
81697;SDS011;71109;52.514;5.708;2023-12-07T15:39:39;43.58;;;16.52;;
81697;SDS011;71109;52.514;5.708;2023-12-07T15:42:05;52.72;;;18.67;;
81697;SDS011;71109;52.514;5.708;2023-12-07T15:44:31;42.43;;;19.00;;
81697;SDS011;71109;52.514;5.708;2023-12-07T15:46:57;43.65;;;16.08;;
81697;SDS011;71109;52.514;5.708;2023-12-07T15:49:23;44.80;;;18.33;;
81697;SDS011;71109;52.514;5.708;2023-12-07T15:51:48;47.90;;;18.88;;
81697;SDS011;71109;52.514;5.708;2023-12-07T15:54:14;55.97;;;21.27;;
81697;SDS011;71109;52.514;5.708;2023-12-07T15:56:40;51.97;;;18.97;;
81697;SDS011;71109;52.514;5.708;2023-12-07T15:59:05;56.78;;;20.00;;
81697;SDS011;71109;52.514;5.708;2023-12-07T16:01:30;54.57;;;22.17;;
81697;SDS011;71109;52.514;5.708;2023-12-07T16:03:56;56.85;;;20.02;;
81697;SDS011;71109;52.514;5.708;2023-12-07T16:06:21;47.47;;;18.27;;
81697;SDS011;71109;52.514;5.708;2023-12-07T16:08:47;50.88;;;20.15;;
81697;SDS011;71109;52.514;5.708;2023-12-07T16:11:12;52.08;;;20.00;;
81697;SDS011;71109;52.514;5.708;2023-12-07T16:13:38;63.92;;;22.13;;
81697;SDS011;71109;52.514;5.708;2023-12-07T16:16:03;52.83;;;20.13;;
81697;SDS011;71109;52.514;5.708;2023-12-07T16:18:28;51.40;;;18.45;;
81697;SDS011;71109;52.514;5.708;2023-12-07T16:20:54;58.20;;;20.98;;
81697;SDS011;71109;52.514;5.708;2023-12-07T16:23:19;47.45;;;19.20;;
81697;SDS011;71109;52.514;5.708;2023-12-07T16:25:44;68.13;;;22.37;;
81697;SDS011;71109;52.514;5.708;2023-12-07T16:28:10;63.27;;;21.13;;
81697;SDS011;71109;52.514;5.708;2023-12-07T16:30:35;74.60;;;24.40;;
81697;SDS011;71109;52.514;5.708;2023-12-07T16:33:01;74.53;;;24.55;;
81697;SDS011;71109;52.514;5.708;2023-12-07T16:35:26;63.40;;;22.55;;
81697;SDS011;71109;52.514;5.708;2023-12-07T16:37:51;71.00;;;22.63;;
81697;SDS011;71109;52.514;5.708;2023-12-07T16:40:17;67.70;;;23.77;;
81697;SDS011;71109;52.514;5.708;2023-12-07T16:42:42;71.57;;;25.27;;
81697;SDS011;71109;52.514;5.708;2023-12-07T16:45:07;62.72;;;22.90;;
81697;SDS011;71109;52.514;5.708;2023-12-07T16:47:35;70.50;;;24.60;;
81697;SDS011;71109;52.514;5.708;2023-12-07T16:50:01;62.17;;;22.42;;
81697;SDS011;71109;52.514;5.708;2023-12-07T16:52:26;70.25;;;23.92;;
81697;SDS011;71109;52.514;5.708;2023-12-07T16:54:52;63.10;;;23.67;;
81697;SDS011;71109;52.514;5.708;2023-12-07T16:57:20;73.40;;;23.48;;
81697;SDS011;71109;52.514;5.708;2023-12-07T16:59:46;73.28;;;24.80;;
81697;SDS011;71109;52.514;5.708;2023-12-07T17:02:11;91.05;;;24.35;;
81697;SDS011;71109;52.514;5.708;2023-12-07T17:04:37;64.28;;;22.77;;
81697;SDS011;71109;52.514;5.708;2023-12-07T17:07:02;69.87;;;23.63;;